createdAt,value
2017-11-27T08:20:47.341Z,4.40
2017-11-27T08:23:16.157Z,4.87
2017-11-27T08:25:44.998Z,5.07
2017-11-27T08:28:13.909Z,4.37
2017-11-27T08:30:43.512Z,4.37
2017-11-27T08:33:13.114Z,3.63
2017-11-27T08:35:41.931Z,3.90
2017-11-27T08:38:10.785Z,3.93
2017-11-27T08:40:39.627Z,5.10
2017-11-27T08:43:08.448Z,3.70
2017-11-27T08:45:37.287Z,3.40
2017-11-27T08:48:06.110Z,3.60
2017-11-27T08:50:34.961Z,3.90
2017-11-27T08:53:03.805Z,3.90
2017-11-27T08:55:33.415Z,4.07
2017-11-27T08:58:02.270Z,4.10
2017-11-27T09:00:31.113Z,3.93
2017-11-27T09:02:59.944Z,3.60
2017-11-27T09:05:29.541Z,2.40
2017-11-27T09:07:58.376Z,3.03
2017-11-27T09:10:27.238Z,3.07
2017-11-27T09:12:56.850Z,4.10
2017-11-27T09:15:25.665Z,3.73
2017-11-27T09:17:54.507Z,3.50
2017-11-27T09:20:23.337Z,4.07
2017-11-27T09:22:52.928Z,3.70
2017-11-27T09:25:22.554Z,3.40
2017-11-27T09:27:52.125Z,3.63
2017-11-27T09:30:20.956Z,3.73
2017-11-27T09:32:49.818Z,4.17
2017-11-27T09:35:18.640Z,3.90
2017-11-27T09:37:47.501Z,3.23
2017-11-27T09:40:16.466Z,3.43
2017-11-27T09:42:45.291Z,4.50
2017-11-27T09:45:14.915Z,4.30
2017-11-27T09:47:44.499Z,4.23
2017-11-27T09:50:14.136Z,4.53
2017-11-27T09:52:42.965Z,4.30
2017-11-27T09:55:12.573Z,3.67
2017-11-27T09:57:42.188Z,3.70
2017-11-27T10:00:16.641Z,4.37
2017-11-27T10:02:45.474Z,3.73
2017-11-27T10:05:14.303Z,3.30
2017-11-27T10:07:43.137Z,3.43
2017-11-27T10:10:11.966Z,4.43
2017-11-27T10:12:40.787Z,3.20
2017-11-27T10:15:09.603Z,3.63
2017-11-27T10:17:38.460Z,3.20
2017-11-27T10:20:07.295Z,2.97
2017-11-27T10:22:36.157Z,2.60
2017-11-27T10:25:05.118Z,4.43
2017-11-27T10:27:33.992Z,4.20
2017-11-27T10:30:02.812Z,4.87
2017-11-27T10:32:31.653Z,3.80
2017-11-27T10:35:01.277Z,5.10
2017-11-27T10:37:30.097Z,2.90
2017-11-27T10:39:58.960Z,3.20
2017-11-27T10:42:28.572Z,5.47
2017-11-27T10:44:58.156Z,4.07
2017-11-27T10:47:27.765Z,3.87
2017-11-27T10:49:57.384Z,3.90
2017-11-27T10:52:26.975Z,3.83
2017-11-27T10:54:57.247Z,2.80
2017-11-27T10:57:26.833Z,4.10
2017-11-27T10:59:55.833Z,3.83
2017-11-27T11:02:24.679Z,4.50
2017-11-27T11:04:53.503Z,4.03
2017-11-27T11:07:22.341Z,3.37
2017-11-27T11:09:51.178Z,4.13
2017-11-27T11:12:20.030Z,4.27
2017-11-27T11:14:48.867Z,5.50
2017-11-27T11:17:18.588Z,5.97
2017-11-27T11:19:47.434Z,4.73
2017-11-27T11:22:16.600Z,3.37
2017-11-27T11:24:45.437Z,2.73
2017-11-27T11:27:14.245Z,3.43
2017-11-27T11:29:43.069Z,2.43
2017-11-27T11:32:11.917Z,2.83
2017-11-27T11:34:40.753Z,4.70
2017-11-27T11:37:09.564Z,2.97
2017-11-27T11:39:39.344Z,2.60
2017-11-27T11:42:08.393Z,2.23
2017-11-27T11:44:39.082Z,2.53
2017-11-27T11:47:08.652Z,2.07
2017-11-27T11:49:37.483Z,2.07
2017-11-27T11:52:06.311Z,1.63
2017-11-27T11:54:35.174Z,1.70
2017-11-27T11:57:04.007Z,2.03
2017-11-27T11:59:33.636Z,1.97
2017-11-27T12:02:02.448Z,2.20
2017-11-27T12:04:31.289Z,2.00
2017-11-27T12:07:00.890Z,2.23
2017-11-27T12:09:30.496Z,2.40
2017-11-27T12:11:59.309Z,2.33
2017-11-27T12:14:28.921Z,1.70
2017-11-27T12:16:57.753Z,1.77
2017-11-27T12:19:26.574Z,2.10
2017-11-27T12:21:56.227Z,2.10
2017-11-27T12:24:25.045Z,2.33
2017-11-27T12:26:53.886Z,2.87
2017-11-27T12:29:22.721Z,2.30
2017-11-27T12:31:51.559Z,2.60
2017-11-27T12:34:20.393Z,2.67
2017-11-27T12:36:49.233Z,1.77
2017-11-27T12:39:19.020Z,2.30
2017-11-27T12:41:47.848Z,4.43
2017-11-27T12:44:16.699Z,15.27
2017-11-27T12:46:46.331Z,9.40
2017-11-27T12:49:15.172Z,5.47
2017-11-27T12:51:44.002Z,9.97
2017-11-27T12:54:13.629Z,7.07
2017-11-27T12:56:42.466Z,2.33
2017-11-27T12:59:12.089Z,3.07
2017-11-27T13:01:41.700Z,3.63
2017-11-27T13:04:11.309Z,3.87
2017-11-27T13:06:40.145Z,3.80
2017-11-27T13:09:09.892Z,2.10
2017-11-27T13:11:39.500Z,1.60
2017-11-27T13:14:09.095Z,1.50
2017-11-27T13:16:37.936Z,2.07
2017-11-27T13:19:06.789Z,2.53
2017-11-27T13:21:36.379Z,2.20
2017-11-27T13:24:06.636Z,1.93
2017-11-27T13:26:35.439Z,2.37
2017-11-27T13:29:04.268Z,2.10
2017-11-27T13:31:33.092Z,3.90
2017-11-27T13:34:01.948Z,5.23
2017-11-27T13:36:30.752Z,3.80
2017-11-27T13:39:00.353Z,3.10
2017-11-27T13:41:29.192Z,3.20
2017-11-27T13:43:58.108Z,3.20
2017-11-27T13:46:26.926Z,3.33
2017-11-27T13:48:56.535Z,3.40
2017-11-27T13:51:26.443Z,3.70
2017-11-27T13:53:56.038Z,3.00
2017-11-27T13:56:24.913Z,2.70
2017-11-27T13:58:53.757Z,2.73
2017-11-27T14:01:22.612Z,5.47
2017-11-27T14:03:51.436Z,8.57
2017-11-27T14:06:20.278Z,6.60
2017-11-27T14:08:50.234Z,5.53
2017-11-27T14:11:19.087Z,4.37
2017-11-27T14:13:47.910Z,3.20
2017-11-27T14:16:17.006Z,3.03
2017-11-27T14:18:46.615Z,3.20
2017-11-27T14:21:15.463Z,2.60
2017-11-27T14:23:44.289Z,2.60
2017-11-27T14:26:13.145Z,2.60
2017-11-27T14:28:41.984Z,3.10
2017-11-27T14:31:11.264Z,3.10
2017-11-27T14:33:40.307Z,3.03
2017-11-27T14:36:09.111Z,3.37
2017-11-27T14:38:38.522Z,2.70
2017-11-27T14:41:08.753Z,2.93
2017-11-27T14:53:22.615Z,2.90
2017-11-27T14:55:51.445Z,3.57
2017-11-27T14:58:20.289Z,3.10
2017-11-27T15:00:49.130Z,3.87
2017-11-27T15:03:18.242Z,4.70
2017-11-27T15:05:47.095Z,5.40
2017-11-27T15:08:15.916Z,4.93
2017-11-27T15:10:44.732Z,5.13
2017-11-27T15:13:13.592Z,5.90
2017-11-27T15:15:42.489Z,5.00
2017-11-27T15:18:11.322Z,6.53
2017-11-27T15:20:40.160Z,6.40
2017-11-27T15:23:09.015Z,6.63
2017-11-27T15:25:38.619Z,6.23
2017-11-27T15:28:08.236Z,5.33
2017-11-27T15:30:37.078Z,5.70
2017-11-27T15:33:05.920Z,5.33
2017-11-27T15:35:34.752Z,5.40
2017-11-27T15:38:03.732Z,5.00
2017-11-27T15:40:32.560Z,5.30
2017-11-27T15:43:02.209Z,3.80
2017-11-27T15:45:31.053Z,3.70
2017-11-27T15:48:00.637Z,3.40
2017-11-27T15:50:29.531Z,3.43
2017-11-27T15:52:58.373Z,4.20
2017-11-27T15:55:27.976Z,4.47
2017-11-27T15:57:56.812Z,4.20
2017-11-27T16:00:25.649Z,3.53
2017-11-27T16:02:54.508Z,3.63
2017-11-27T16:05:23.387Z,4.10
2017-11-27T16:07:52.216Z,3.47
2017-11-27T16:10:21.051Z,3.30
2017-11-27T16:12:50.667Z,3.83
2017-11-27T16:15:19.503Z,3.63
2017-11-27T16:17:48.444Z,3.70
2017-11-27T16:20:17.405Z,3.23
2017-11-27T16:22:46.382Z,3.70
2017-11-27T16:25:15.227Z,3.60
2017-11-27T16:27:44.092Z,4.60
2017-11-27T16:30:12.934Z,4.40
2017-11-27T16:32:41.796Z,4.77
2017-11-27T16:35:11.630Z,4.90
2017-11-27T16:37:41.200Z,4.80
2017-11-27T16:40:10.020Z,4.83
2017-11-27T16:42:39.617Z,5.40
2017-11-27T16:45:08.468Z,5.20
2017-11-27T16:47:37.306Z,5.23
2017-11-27T16:50:06.905Z,5.33
2017-11-27T16:52:36.508Z,5.33
2017-11-27T16:55:06.137Z,5.73
2017-11-27T16:57:35.834Z,6.53
2017-11-27T17:00:04.713Z,7.00
2017-11-27T17:02:33.534Z,9.80
2017-11-27T17:05:02.368Z,12.63
2017-11-27T17:07:31.255Z,16.37
2017-11-27T17:10:00.094Z,12.23
2017-11-27T17:12:29.933Z,13.50
2017-11-27T17:14:59.561Z,12.10
2017-11-27T17:17:29.190Z,11.33
2017-11-27T17:19:58.036Z,11.00
2017-11-27T17:22:27.672Z,9.73
2017-11-27T17:24:56.523Z,9.57
2017-11-27T17:27:25.374Z,11.10
2017-11-27T17:29:54.226Z,8.80
2017-11-27T17:32:23.815Z,8.03
2017-11-27T17:34:53.433Z,5.93
2017-11-27T17:37:23.025Z,5.43
2017-11-27T17:39:52.977Z,5.57
2017-11-27T17:42:22.584Z,5.20
2017-11-27T17:44:51.451Z,6.10
2017-11-27T17:47:20.271Z,5.30
2017-11-27T17:49:49.518Z,5.20
2017-11-27T17:52:18.353Z,5.37
2017-11-27T17:54:47.618Z,8.20
2017-11-27T17:57:17.376Z,10.07
2017-11-27T17:59:46.593Z,7.80
2017-11-27T18:02:17.627Z,6.67
2017-11-27T18:04:47.217Z,7.20
2017-11-27T18:07:16.812Z,8.77
2017-11-27T18:09:46.434Z,8.90
2017-11-27T18:12:15.318Z,9.27
2017-11-27T18:14:44.928Z,8.90
2017-11-27T18:17:13.842Z,9.83
2017-11-27T18:19:42.768Z,11.37
2017-11-27T18:22:12.129Z,12.10
2017-11-27T18:24:41.001Z,10.67
2017-11-27T18:27:10.625Z,9.97
2017-11-27T18:29:39.567Z,10.07
2017-11-27T18:32:08.404Z,10.50
2017-11-27T18:34:37.314Z,11.03
2017-11-27T18:37:06.125Z,10.20
2017-11-27T18:39:35.006Z,11.27
2017-11-27T18:42:03.853Z,9.33
2017-11-27T18:44:33.477Z,11.93
2017-11-27T18:47:02.473Z,15.17
2017-11-27T18:49:31.352Z,12.73
2017-11-27T18:52:01.038Z,12.40
2017-11-27T18:54:30.677Z,9.43
2017-11-27T18:56:59.542Z,23.27
2017-11-27T18:59:29.158Z,18.93
2017-11-27T19:01:58.947Z,12.50
2017-11-27T19:04:28.460Z,10.13
2017-11-27T19:06:57.344Z,8.27
2017-11-27T19:09:26.984Z,9.40
2017-11-27T19:11:56.621Z,7.53
2017-11-27T19:14:25.520Z,7.23
2017-11-27T19:16:54.395Z,7.97
2017-11-27T19:19:23.332Z,8.10
2017-11-27T19:21:52.183Z,7.23
2017-11-27T19:24:21.053Z,7.33
2017-11-27T19:26:50.682Z,7.70
2017-11-27T19:29:19.552Z,6.67
2017-11-27T19:31:49.182Z,7.47
2017-11-27T19:34:18.068Z,7.23
2017-11-27T19:36:46.927Z,6.00
2017-11-27T19:39:16.548Z,5.80
2017-11-27T19:41:45.408Z,5.70
2017-11-27T19:44:15.036Z,4.40
2017-11-27T19:46:44.711Z,3.90
2017-11-27T19:49:13.618Z,3.63
2017-11-27T19:51:45.360Z,3.17
2017-11-27T19:54:16.092Z,3.80
2017-11-27T19:56:44.954Z,3.50
2017-11-27T19:59:13.777Z,3.00
2017-11-27T20:01:42.614Z,3.37
2017-11-27T20:04:12.231Z,4.60
2017-11-27T20:06:41.828Z,5.07
2017-11-27T20:09:12.250Z,5.03
2017-11-27T20:11:41.168Z,6.20
2017-11-27T20:14:10.793Z,6.00
2017-11-27T20:16:39.638Z,6.93
2017-11-27T20:19:09.390Z,8.87
2017-11-27T20:21:38.252Z,8.17
2017-11-27T20:24:07.306Z,8.90
2017-11-27T20:26:37.012Z,8.93
2017-11-27T20:29:06.759Z,10.10
2017-11-27T20:31:36.757Z,8.63
2017-11-27T20:34:05.603Z,8.33
2017-11-27T20:36:34.496Z,9.20
2017-11-27T20:39:03.593Z,9.40
2017-11-27T20:41:32.563Z,8.27
2017-11-27T20:44:02.158Z,6.80
2017-11-27T20:46:37.667Z,3.40
2017-11-27T20:49:06.544Z,3.37
2017-11-27T20:51:35.468Z,3.30
2017-11-27T20:54:05.933Z,3.10
2017-11-27T20:56:35.479Z,2.87
2017-11-27T20:59:04.409Z,2.70
2017-11-27T21:01:33.217Z,2.60
2017-11-27T21:04:02.163Z,2.50
2017-11-27T21:06:31.004Z,3.07
2017-11-27T21:08:59.847Z,2.57
2017-11-27T21:11:28.728Z,2.80
2017-11-27T21:13:57.539Z,2.67
2017-11-27T21:16:27.217Z,3.47
2017-11-27T21:18:56.107Z,2.70
2017-11-27T21:21:25.105Z,3.77
2017-11-27T21:23:53.943Z,3.10
2017-11-27T21:26:23.562Z,3.40
2017-11-27T21:28:52.499Z,6.27
2017-11-27T21:31:21.408Z,5.60
2017-11-27T21:33:50.250Z,9.70
2017-11-27T21:36:19.090Z,5.13
2017-11-27T21:38:48.808Z,4.13
2017-11-27T21:41:17.723Z,4.67
2017-11-27T21:43:46.713Z,21.90
2017-11-27T21:46:15.566Z,10.77
2017-11-27T21:48:44.402Z,9.70
2017-11-27T21:51:13.254Z,10.20
2017-11-27T21:53:43.505Z,8.90
2017-11-27T21:56:12.389Z,8.30
2017-11-27T21:58:41.256Z,12.60
2017-11-27T22:01:10.911Z,10.40
2017-11-27T22:03:40.403Z,8.80
2017-11-27T22:06:10.127Z,6.50
2017-11-27T22:08:38.959Z,6.40
2017-11-27T22:11:07.807Z,6.60
2017-11-27T22:13:36.656Z,4.70
2017-11-27T22:16:06.235Z,6.43
2017-11-27T22:18:35.089Z,3.53
2017-11-27T22:21:03.949Z,6.80
2017-11-27T22:23:32.819Z,5.10
2017-11-27T22:26:02.427Z,5.00
2017-11-27T22:28:32.038Z,3.20
2017-11-27T22:31:01.648Z,3.17
2017-11-27T22:33:31.320Z,2.90
2017-11-27T22:36:00.148Z,4.10
2017-11-27T22:38:29.769Z,2.80
2017-11-27T22:40:58.639Z,3.77
2017-11-27T22:43:28.246Z,3.40
2017-11-27T22:45:57.845Z,3.27
2017-11-27T22:48:27.470Z,3.50
2017-11-27T22:50:57.131Z,3.30
2017-11-27T22:53:25.946Z,3.00
2017-11-27T22:55:55.590Z,3.30
2017-11-27T22:58:24.432Z,3.30
2017-11-27T23:00:53.285Z,3.10
2017-11-27T23:03:22.922Z,3.27
2017-11-27T23:05:52.516Z,2.80
2017-11-27T23:08:22.750Z,3.80
2017-11-27T23:10:52.342Z,3.30
2017-11-27T23:13:21.960Z,3.60
2017-11-27T23:15:51.600Z,3.87
2017-11-27T23:18:20.437Z,4.27
2017-11-27T23:20:49.479Z,4.30
2017-11-27T23:23:18.352Z,4.07
2017-11-27T23:25:48.995Z,4.40
2017-11-27T23:28:17.834Z,3.27
2017-11-27T23:30:46.679Z,4.60
2017-11-27T23:33:15.513Z,3.00
2017-11-27T23:35:44.336Z,3.43
2017-11-27T23:38:13.197Z,3.80
2017-11-27T23:40:42.787Z,2.77
2017-11-27T23:43:11.720Z,2.50
2017-11-27T23:45:41.312Z,2.90
2017-11-27T23:48:10.944Z,3.60
2017-11-27T23:50:39.799Z,4.00
2017-11-27T23:53:08.616Z,3.50
2017-11-27T23:55:37.484Z,3.73
2017-11-27T23:58:07.092Z,3.60
